• Join FlightAware (Why Join?)
  • Login
  • US Flag 
Gobble Gobble! 
07:49PM EST


 

Airport Tracker/Info


-or-


 

Live Flight TrackerFlight Track Log ✈ G-VIIS ✈ 22-Apr-2013 ✈ KATL - EGLL / LHR

Flight Track Log - Related Links

Times and Time Zones

All times are in EDT time to prevent confusion due to time zone crossing. See the G-VIIS flight status page for this flight to view local times or setup timezone preferences in your user account.

Time Position Orientation Groundspeed Altitude Reporting Facility
EDT Latitude Longitude Course Direction KTS MPH feet Rate Location/Type
10:56PM 33.6340 -84.3620 89° East 207 238 2,500  Level FlightAware
10:56PM 33.6350 -84.3370 87° East 207 238 2,500 2,040 Level FlightAware
10:59PM 33.7513 -83.9757 54° Northeast  Level FlightAware Approximate
10:59PM 33.6670 -84.0580 54° Northeast 288 331 9,800  Level FlightAware
11:00PM 33.7070 -84.0060 47° Northeast 320 368 10,600 1,020 Climbing FlightAware
11:01PM 33.7560 -83.9430 47° Northeast 359 413 11,300 1,380 Climbing FlightAware
11:01PM 33.8020 -83.8830 47° Northeast 380 437 12,600 2,040 Climbing FlightAware
11:02PM 33.8570 -83.8120 47° Northeast 385 443 14,200 2,040 Climbing FlightAware
11:03PM 33.9070 -83.7460 48° Northeast 395 455 15,500 1,980 Climbing FlightAware
11:04PM 33.9540 -83.6770 51° Northeast 405 466 16,900 1,800 Climbing FlightAware
11:04PM 34.0050 -83.5970 52° Northeast 417 480 18,100 1,740 Climbing FlightAware
11:05PM 34.0540 -83.5190 53° Northeast 429 494 19,400 1,800 Climbing FlightAware
11:06PM 34.1080 -83.4330 53° Northeast 432 497 20,700 1,620 Climbing FlightAware
11:06PM 34.1540 -83.3590 53° Northeast 439 505 21,700 1,500 Climbing FlightAware
11:07PM 34.2120 -83.2670 53° Northeast 453 521 22,900 1,620 Climbing FlightAware
11:08PM 34.2660 -83.1800 53° Northeast 460 529 24,000 1,620 Climbing FlightAware
11:08PM 34.3180 -83.0970 53° Northeast 465 535 25,100 1,380 Climbing FlightAware
11:09PM 34.3880 -82.9840 53° Northeast 471 542 26,300 1,380 Climbing FlightAware
11:10PM 34.4403 -82.8993 53° Northeast 479 551 27,200 1,560 Climbing FlightAware ADS-B
11:11PM 34.4818 -82.8321 53° Northeast 480 552 28,000 1,260 Climbing FlightAware ADS-B
11:11PM 34.5190 -82.7720 53° Northeast 486 559 28,600 1,200 Climbing FlightAware
11:12PM 34.5720 -82.6860 53° Northeast 490 564 29,500 1,200 Climbing FlightAware
11:12PM 34.6320 -82.5880 53° Northeast 495 570 30,300 1,020 Climbing FlightAware
11:13PM 34.6900 -82.4940 53° Northeast 501 577 31,000 1,200 Climbing FlightAware
11:14PM 34.7510 -82.3930 54° Northeast 502 578 32,000 1,440 Climbing FlightAware
11:14PM 34.7921 -82.3259 53° Northeast 500 575 32,700 1,260 Climbing FlightAware ADS-B
11:15PM 34.8473 -82.2353 53° Northeast 502 578 33,400 960 Climbing FlightAware ADS-B
11:16PM 34.8950 -82.1565 54° Northeast 508 585 33,900 720 Climbing FlightAware ADS-B
11:16PM 34.9376 -82.0861 54° Northeast 514 592 34,200 780 Climbing FlightAware ADS-B
11:17PM 34.9800 -82.0160 54° Northeast 516 594 34,700 960 Climbing FlightAware ADS-B
11:17PM 35.0230 -81.9434 54° Northeast 517 595 35,200 960 Climbing FlightAware ADS-B
11:18PM 35.0639 -81.8698 56° Northeast 521 600 35,700 780 Climbing FlightAware ADS-B
11:18PM 35.1045 -81.7939 57° Northeast 524 603 36,000 480 Climbing FlightAware ADS-B
11:19PM 35.1450 -81.7178 57° Northeast 525 604 36,200 720 Climbing FlightAware ADS-B
11:19PM 35.1855 -81.6413 57° Northeast 525 604 36,800 720 Climbing FlightAware ADS-B
11:20PM 35.2289 -81.5591 57° Northeast 527 606 37,000 180 Climbing FlightAware ADS-B
11:20PM 35.2693 -81.4826 57° Northeast 528 608 37,000  Level FlightAware ADS-B
11:21PM 35.3149 -81.3958 57° Northeast 528 608 37,000  Level FlightAware ADS-B
11:21PM 35.3628 -81.3045 57° Northeast 528 608 37,000  Level FlightAware ADS-B
11:22PM 35.4310 -81.1740 57° Northeast 527 606 37,000  Level FlightAware
11:23PM 35.4840 -81.0730 57° Northeast 525 604 37,000  Level FlightAware
11:24PM 35.5340 -80.9760 58° Northeast 523 602 37,000  Level FlightAware
11:24PM 35.5930 -80.8620 58° Northeast 523 602 37,000  Level FlightAware
11:25PM 35.6360 -80.7790 57° Northeast 521 600 37,000  Level FlightAware
11:26PM 35.7100 -80.6350 58° Northeast 526 605 37,000  Level FlightAware
11:27PM 35.7860 -80.4900 57° Northeast 530 610 37,000  Level FlightAware
11:28PM 35.8310 -80.4030 57° Northeast 530 610 37,000  Level FlightAware
11:28PM 35.8770 -80.3170 57° Northeast 530 610 37,000  Level FlightAware
11:29PM 35.9330 -80.2090 57° Northeast 530 610 37,000  Level FlightAware
11:30PM 35.9790 -80.1230 57° Northeast 530 610 37,000  Level FlightAware
11:30PM 36.0240 -80.0360 57° Northeast 530 610 37,000  Level FlightAware
11:31PM 36.0700 -79.9500 56° Northeast 530 610 37,000  Level FlightAware
11:32PM 36.1150 -79.8630 57° Northeast 530 610 37,000  Level FlightAware
11:33PM 36.1720 -79.7550 57° Northeast 530 610 37,000  Level FlightAware
11:33PM 36.2170 -79.6680 57° Northeast 530 610 37,000  Level FlightAware
11:34PM 36.2620 -79.5820 57° Northeast 530 610 37,000  Level FlightAware
11:35PM 36.3080 -79.4950 57° Northeast 530 610 37,000  Level FlightAware
11:35PM 36.3530 -79.4080 57° Northeast 530 610 37,000  Level FlightAware
11:36PM 36.5520 -79.0770 53° Northeast 537 618 37,000  Level FlightAware
11:37PM 36.6160 -78.9620 55° Northeast 538 619 37,000  Level FlightAware
11:37PM 36.6670 -78.8700 55° Northeast 538 619 37,000  Level FlightAware
11:38PM 36.7220 -78.7700 56° Northeast 538 619 37,000  Level FlightAware
11:40PM 36.8600 -78.5170 56° Northeast 532 612 37,000  Level FlightAware
11:40PM 36.9350 -78.4120 48° Northeast 536 617 37,000  Level FlightAware
11:41PM 37.0010 -78.3320 44° Northeast 536 617 37,000  Level FlightAware
11:42PM 37.0620 -78.2580 44° Northeast 536 617 37,000  Level FlightAware
11:43PM 37.1710 -78.1370 41° Northeast 542 624 37,000  Level FlightAware
11:43PM 37.2480 -78.0480 43° Northeast 542 624 37,000  Level FlightAware
11:44PM 37.3270 -77.9590 42° Northeast 542 624 37,000  Level FlightAware
11:45PM 37.4110 -77.8620 43° Northeast 543 625 37,000  Level FlightAware
11:45PM 37.4850 -77.7770 42° Northeast 546 628 37,000  Level FlightAware
11:46PM 37.5690 -77.6810 42° Northeast 548 631 37,000  Level FlightAware
11:47PM 37.6450 -77.5940 42° Northeast 551 634 37,000  Level FlightAware
11:47PM 37.7058 -77.5236 42° Northeast 551 634 37,000  Level FlightAware ADS-B
11:48PM 37.7649 -77.4555 42° Northeast 552 635 37,000  Level FlightAware ADS-B
11:48PM 37.8243 -77.3867 42° Northeast 553 636 37,000  Level FlightAware ADS-B
11:49PM 37.8805 -77.3215 42° Northeast 554 638 37,000  Level FlightAware ADS-B
11:49PM 37.9382 -77.2544 43° Northeast 555 639 37,000  Level FlightAware ADS-B
11:50PM 38.0074 -77.1737 43° Northeast 556 640 37,000  Level FlightAware ADS-B
11:50PM 38.0646 -77.1069 43° Northeast 558 642 37,000  Level FlightAware ADS-B
11:51PM 38.1223 -77.0393 43° Northeast 560 644 37,000  Level FlightAware ADS-B
11:51PM 38.1801 -76.9714 43° Northeast 562 647 37,000  Level FlightAware ADS-B
11:52PM 38.2396 -76.9016 43° Northeast 563 648 37,000  Level FlightAware ADS-B
11:52PM 38.2977 -76.8331 43° Northeast 565 650 37,000  Level FlightAware ADS-B
11:53PM 38.3567 -76.7633 43° Northeast 567 652 37,000  Level FlightAware ADS-B
11:54PM 38.4152 -76.6941 43° Northeast 569 655 37,000  Level FlightAware ADS-B
11:54PM 38.4730 -76.6254 43° Northeast 572 658 37,000  Level FlightAware ADS-B
11:55PM 38.5334 -76.5535 43° Northeast 574 661 37,000  Level FlightAware ADS-B
11:55PM 38.5962 -76.4786 43° Northeast 574 661 37,000  Level FlightAware ADS-B
11:56PM 38.6548 -76.4085 43° Northeast 577 664 37,000  Level FlightAware ADS-B
11:56PM 38.7133 -76.3384 43° Northeast 579 666 37,000  Level FlightAware ADS-B
11:57PM 38.7730 -76.2666 43° Northeast 580 667 37,000  Level FlightAware ADS-B
11:57PM 38.8332 -76.1942 43° Northeast 581 669 37,000  Level FlightAware ADS-B
11:58PM 38.8920 -76.1233 43° Northeast 582 670 37,000  Level FlightAware ADS-B
11:58PM 38.9519 -76.0507 43° Northeast 583 671 37,000  Level FlightAware ADS-B
11:59PM 39.0106 -75.9794 43° Northeast 584 672 37,000  Level FlightAware ADS-B
11:59PM 39.0721 -75.9045 43° Northeast 584 672 37,000  Level FlightAware ADS-B
12:00AM 39.1329 -75.8303 43° Northeast 585 673 37,000  Level FlightAware ADS-B
12:00AM 39.1961 -75.7532 43° Northeast 585 673 37,000  Level FlightAware ADS-B
12:01AM 39.2556 -75.6802 44° Northeast 585 673 37,000  Level FlightAware ADS-B
12:01AM 39.3151 -75.6071 44° Northeast 585 673 37,000  Level FlightAware ADS-B
12:02AM 39.3758 -75.5324 44° Northeast 586 674 37,000  Level FlightAware ADS-B
12:02AM 39.4352 -75.4591 44° Northeast 585 673 37,000  Level FlightAware ADS-B
12:03AM 39.4954 -75.3847 44° Northeast 585 673 37,000  Level FlightAware ADS-B
12:03AM 39.5555 -75.3101 44° Northeast 586 674 37,000  Level FlightAware ADS-B
12:04AM 39.6156 -75.2352 44° Northeast 586 674 37,000  Level FlightAware ADS-B
12:04AM 39.6805 -75.1542 44° Northeast 588 677 37,000  Level FlightAware ADS-B
12:05AM 39.7431 -75.0759 44° Northeast 588 677 37,000  Level FlightAware ADS-B
12:05AM 39.8065 -74.9965 44° Northeast 588 677 37,000  Level FlightAware ADS-B
12:06AM 39.8705 -74.9161 44° Northeast 587 676 37,000  Level FlightAware ADS-B
12:06AM 39.9296 -74.8414 44° Northeast 587 676 37,000  Level FlightAware ADS-B
12:07AM 39.9885 -74.7671 44° Northeast 588 677 37,000  Level FlightAware ADS-B
12:07AM 40.0472 -74.6926 44° Northeast 587 676 37,000  Level FlightAware ADS-B
12:08AM 40.0636 -74.6710 45° Northeast 585 673 37,000  Level FlightAware ADS-B
12:08AM 40.0788 -74.6457 52° Northeast 579 666 37,000  Level FlightAware ADS-B
12:08AM 40.1201 -74.5511 60° Northeast 573 659 37,000  Level FlightAware ADS-B
12:09AM 40.1429 -74.4890 64° Northeast 570 656 37,000  Level FlightAware ADS-B
12:09AM 40.1736 -74.3871 68° East 566 651 37,000  Level FlightAware ADS-B
12:10AM 40.2012 -74.2840 71° East 566 651 37,000  Level FlightAware ADS-B
12:10AM 40.2277 -74.1854 71° East 566 651 37,000  Level FlightAware ADS-B
12:11AM 40.2554 -74.0822 71° East 567 652 37,000  Level FlightAware ADS-B
12:11AM 40.2833 -73.9790 70° East 567 652 37,000  Level FlightAware ADS-B
12:12AM 40.3098 -73.8815 70° East 567 652 37,000  Level FlightAware ADS-B
12:12AM 40.3360 -73.7845 70° East 567 652 37,000  Level FlightAware ADS-B
12:13AM 40.3628 -73.6856 70° East 568 654 37,000  Level FlightAware ADS-B
12:13AM 40.3905 -73.5831 70° East 570 656 37,000  Level FlightAware ADS-B
12:14AM 40.4078 -73.5201 70° East 571 657 37,000  Level FlightAware ADS-B
12:14AM 40.4237 -73.4695 68° East 575 662 37,000  Level FlightAware ADS-B
12:14AM 40.4471 -73.4058 64° Northeast 580 667 37,000  Level FlightAware ADS-B
12:15AM 40.4866 -73.3160 60° Northeast 585 673 37,000  Level FlightAware ADS-B
12:15AM 40.5295 -73.2349 55° Northeast 587 676 37,000  Level FlightAware ADS-B
12:16AM 40.5780 -73.1441 55° Northeast 586 674 37,000  Level FlightAware ADS-B
12:16AM 40.6252 -73.0554 55° Northeast 587 676 37,000  Level FlightAware ADS-B
12:17AM 40.6722 -72.9672 55° Northeast 587 676 37,000  Level FlightAware ADS-B
12:17AM 40.7202 -72.8771 55° Northeast 588 677 37,000  Level FlightAware ADS-B
12:18AM 40.7685 -72.7863 55° Northeast 589 678 37,000  Level FlightAware ADS-B
12:18AM 40.8160 -72.6971 55° Northeast 589 678 37,000  Level FlightAware ADS-B
12:19AM 40.8631 -72.6083 55° Northeast 589 678 37,000  Level FlightAware ADS-B
12:19AM 40.9102 -72.5193 55° Northeast 590 679 37,000  Level FlightAware ADS-B
12:20AM 40.9570 -72.4308 55° Northeast 591 680 37,000  Level FlightAware ADS-B
12:20AM 41.0046 -72.3404 55° Northeast 591 680 37,000  Level FlightAware ADS-B
12:21AM 41.0513 -72.2515 55° Northeast 590 679 37,000  Level FlightAware ADS-B
12:21AM 41.1018 -72.1549 55° Northeast 589 678 37,000  Level FlightAware ADS-B
12:22AM 41.1486 -72.0653 55° Northeast 590 679 37,000  Level FlightAware ADS-B
12:22AM 41.1955 -71.9749 55° Northeast 589 678 37,000  Level FlightAware ADS-B
12:23AM 41.2900 -71.7920 55° Northeast 588 677 37,000  Level FlightAware
12:24AM 41.3590 -71.6580 56° Northeast 588 677 37,000  Level FlightAware
12:25AM 41.4200 -71.5400 55° Northeast 588 677 37,000  Level FlightAware
12:26AM 41.4900 -71.4020 56° Northeast 588 677 37,000  Level FlightAware
12:26AM 41.5510 -71.2820 56° Northeast 587 676 37,000  Level FlightAware
12:27AM 41.6080 -71.1700 56° Northeast 586 674 37,000  Level FlightAware
12:28AM 41.6750 -71.0370 56° Northeast 585 673 37,000  Level FlightAware
12:28AM 41.7380 -70.9120 56° Northeast 586 674 37,000  Level FlightAware
12:29AM 41.7960 -70.7950 56° Northeast 585 673 37,000  Level FlightAware
12:30AM 41.8670 -70.6530 56° Northeast 585 673 37,000  Level FlightAware
12:30AM 41.9250 -70.5360 56° Northeast 585 673 37,000  Level FlightAware
12:31AM 41.9920 -70.3980 57° Northeast 586 674 37,000  Level FlightAware
12:32AM 42.0490 -70.2810 57° Northeast 586 674 37,000  Level FlightAware
12:32AM 42.1120 -70.1500 57° Northeast 587 676 37,000  Level FlightAware
12:33AM 42.1650 -70.0400 57° Northeast 588 677 37,000  Level FlightAware
12:34AM 42.2450 -69.8740 57° Northeast 583 671 37,000  Level FlightAware
12:35AM 42.3030 -69.7510 57° Northeast 581 669 37,000  Level FlightAware
12:35AM 42.3620 -69.6290 57° Northeast 584 672 37,000  Level FlightAware
12:36AM 42.4280 -69.4890 57° Northeast 585 673 37,000  Level FlightAware
12:37AM 42.4840 -69.3700 57° Northeast 584 672 37,000  Level FlightAware
12:37AM 42.5440 -69.2430 57° Northeast 584 672 37,000  Level FlightAware
12:38AM 42.6080 -69.1060 58° Northeast 584 672 37,000  Level FlightAware
12:39AM 42.6640 -68.9850 58° Northeast 585 673 37,000  Level FlightAware
12:39AM 42.7190 -68.8650 58° Northeast 585 673 37,000  Level FlightAware
12:40AM 42.7900 -68.7130 57° Northeast 37,000  Level FlightAware
12:41AM 42.8420 -68.5980 58° Northeast 586 674 37,000  Level FlightAware
12:42AM 42.9070 -68.4560 58° Northeast 584 672 37,000  Level FlightAware
12:42AM 42.9650 -68.3290 58° Northeast 587 676 37,000  Level FlightAware
12:43AM 43.0360 -68.1710 58° Northeast 587 676 37,000  Level FlightAware
12:44AM 43.0810 -68.0730 58° Northeast 586 674 37,000  Level FlightAware
12:44AM 43.1530 -67.9120 58° Northeast 586 674 37,000  Level FlightAware
12:45AM 43.2100 -67.7840 59° Northeast 586 674 37,000  Level FlightAware
12:46AM 43.2670 -67.6570 58° Northeast 586 674 37,000  Level FlightAware
12:47AM 43.3300 -67.5140 59° Northeast 586 674 37,000  Level FlightAware
12:47AM 43.3850 -67.3880 59° Northeast 586 674 37,000  Level FlightAware
12:48AM 43.4420 -67.2590 59° Northeast 581 669 37,000  Level FlightAware
12:49AM 43.5040 -67.1150 59° Northeast 581 669 37,000  Level FlightAware
12:49AM 43.5610 -66.9840 59° Northeast 581 669 37,000  Level FlightAware
12:50AM 43.6250 -66.8380 59° Northeast 583 671 37,000  Level FlightAware
12:51AM 43.6790 -66.7110 60° Northeast 582 670 37,000  Level FlightAware
12:51AM 43.7420 -66.5640 59° Northeast 584 672 37,000  Level FlightAware
12:52AM 43.7910 -66.4490 59° Northeast 584 672 37,000  Level FlightAware
12:53AM 43.8880 -66.2200 59° Northeast 582 670 37,000  Level FlightAware
12:54AM 43.9840 -65.9930 59° Northeast 586 674 37,000  Level FlightAware
12:55AM 44.0390 -65.8610 60° Northeast 586 674 37,000  Level FlightAware
12:56AM 44.1000 -65.7140 60° Northeast 585 673 37,000  Level FlightAware
12:57AM 44.1510 -65.5910 60° Northeast 584 672 37,000  Level FlightAware
12:57AM 44.2180 -65.4280 60° Northeast 580 667 37,000  Level FlightAware
12:58AM 44.2720 -65.2960 60° Northeast 574 661 37,000  Level FlightAware
12:59AM 44.3240 -65.1680 60° Northeast 571 657 37,000  Level FlightAware
12:59AM 44.3810 -65.0280 60° Northeast 570 656 37,000  Level FlightAware
01:00AM 44.4330 -64.9000 60° Northeast 569 655 37,000  Level FlightAware
01:01AM 44.4930 -64.7510 61° Northeast 570 656 37,000  Level FlightAware
01:01AM 44.5440 -64.6240 61° Northeast 572 658 37,000  Level FlightAware
01:02AM 44.5940 -64.4960 61° Northeast 572 658 37,000  Level FlightAware
01:03AM 44.6510 -64.3540 61° Northeast 573 659 37,000  Level FlightAware
01:04AM 44.7030 -64.2210 61° Northeast 573 659 37,000  Level FlightAware
01:04AM 44.7620 -64.0710 61° Northeast 573 659 37,000  Level FlightAware
01:05AM 44.8100 -63.9480 61° Northeast 574 661 37,000  Level FlightAware
01:06AM 44.8630 -63.8120 61° Northeast 575 662 37,000  Level FlightAware
01:07AM 44.9370 -63.6200 61° Northeast 575 662 37,000  Level FlightAware
01:07AM 44.9850 -63.4940 62° Northeast 575 662 37,000  Level FlightAware
01:08AM 45.0520 -63.3180 62° Northeast 576 663 37,000  Level FlightAware
01:09AM 45.0950 -63.2050 62° Northeast 576 663 37,000  Level FlightAware
01:10AM 45.1370 -63.0920 62° Northeast 576 663 37,000  Level FlightAware
01:10AM 45.1800 -62.9780 62° Northeast 576 663 37,000  Level FlightAware
01:11AM 45.2330 -62.8360 62° Northeast 576 663 37,000  Level FlightAware
01:12AM 45.2750 -62.7230 62° Northeast 576 663 37,000  Level FlightAware
01:12AM 45.3180 -62.6090 62° Northeast 576 663 37,000  Level FlightAware
01:13AM 45.3600 -62.4950 62° Northeast 576 663 37,000  Level FlightAware
01:14AM 45.4030 -62.3810 62° Northeast 576 663 37,000  Level FlightAware
01:15AM 45.4560 -62.2390 62° Northeast 576 663 37,000  Level FlightAware
01:15AM 45.4990 -62.1240 62° Northeast 576 663 37,000  Level FlightAware
01:16AM 45.5410 -62.0100 62° Northeast 576 663 37,000  Level FlightAware
01:17AM 45.6820 -61.6110 63° Northeast 585 673 37,000  Level FlightAware
01:17AM 45.7360 -61.4600 63° Northeast 586 674 37,000  Level FlightAware
01:18AM 45.7910 -61.3060 63° Northeast 587 676 37,000  Level FlightAware
01:19AM 45.8410 -61.1650 63° Northeast 588 677 37,000  Level FlightAware
01:19AM 45.8900 -61.0250 63° Northeast 590 679 37,000  Level FlightAware
01:20AM 45.9420 -60.8740 64° Northeast 590 679 37,000  Level FlightAware
01:21AM 45.9930 -60.7280 63° Northeast 591 680 37,000  Level FlightAware
01:22AM 46.0470 -60.5710 64° Northeast 590 679 37,000  Level FlightAware
01:22AM 46.0940 -60.4330 64° Northeast 590 679 37,000  Level FlightAware
01:23AM 46.1430 -60.2920 63° Northeast 591 680 37,000  Level FlightAware
01:24AM 46.1980 -60.1290 64° Northeast 591 680 37,000  Level FlightAware
01:24AM 46.2450 -59.9880 64° Northeast 589 678 37,000  Level FlightAware
01:25AM 46.2980 -59.8310 64° Northeast 589 678 37,000  Level FlightAware
01:26AM 46.3440 -59.6910 65° Northeast 589 678 37,000  Level FlightAware
01:26AM 46.3990 -59.5280 64° Northeast 588 677 37,000  Level FlightAware
01:27AM 46.4460 -59.3840 65° Northeast 586 674 37,000  Level FlightAware
01:28AM 46.4920 -59.2440 64° Northeast 586 674 37,000  Level FlightAware
01:29AM 46.5430 -59.0880 65° Northeast 586 674 37,000  Level FlightAware
01:29AM 46.5900 -58.9430 65° Northeast 585 673 37,000  Level FlightAware
01:30AM 46.6400 -58.7850 65° Northeast 585 673 37,000  Level FlightAware
01:31AM 46.6860 -58.6430 65° Northeast 585 673 37,000  Level FlightAware
01:31AM 46.7380 -58.4800 65° Northeast 583 671 37,000  Level FlightAware
01:32AM 46.7840 -58.3350 65° Northeast 583 671 37,000  Level FlightAware
01:33AM 46.8280 -58.1950 65° Northeast 582 670 37,000  Level FlightAware
01:33AM 46.8730 -58.0520 65° Northeast 579 666 37,000  Level FlightAware
01:34AM 46.9210 -57.8950 66° East 578 665 37,000  Level FlightAware
01:35AM 46.9650 -57.7530 66° East 577 664 37,000  Level FlightAware
01:36AM 47.0150 -57.5910 66° East 576 663 37,000  Level FlightAware
01:36AM 47.0560 -57.4560 66° East 573 659 37,000  Level FlightAware
01:37AM 47.1070 -57.2880 66° East 572 658 37,000  Level FlightAware
01:38AM 47.1500 -57.1470 66° East 570 656 37,000  Level FlightAware
01:38AM 47.1920 -57.0070 66° East 569 655 37,000  Level FlightAware
01:39AM 47.2370 -56.8540 67° East 565 650 37,000 240 Level FlightAware
01:40AM 47.2790 -56.7130 66° East 565 650 37,400 720 Climbing FlightAware
01:40AM 47.3210 -56.5690 67° East 563 648 38,000 420 Climbing FlightAware
01:41AM 47.3630 -56.4320 66° East 563 648 38,000  Level FlightAware
01:42AM 47.3990 -56.3120 66° East 563 648 38,000  Level FlightAware
01:43AM 47.4530 -56.1170 68° East 555 639 38,000  Level FlightAware
01:43AM 47.4930 -55.9780 67° East 551 634 38,000  Level FlightAware
01:44AM 47.5330 -55.8370 67° East 549 632 38,000  Level FlightAware
01:45AM 47.5770 -55.6810 67° East 548 631 38,000  Level FlightAware
01:45AM 47.6160 -55.5430 67° East 545 627 38,000  Level FlightAware
01:46AM 47.6560 -55.4020 67° East 542 624 38,000  Level FlightAware
01:47AM 47.6940 -55.2630 68° East 536 617 38,000  Level FlightAware
01:47AM 47.7390 -55.1030 67° East 534 615 38,000  Level FlightAware
01:48AM 47.7760 -54.9680 68° East 533 613 38,000  Level FlightAware
01:49AM 47.8140 -54.8300 68° East 535 616 38,000  Level FlightAware
01:50AM 47.8560 -54.6740 68° East 535 616 38,000  Level FlightAware
01:50AM 47.8930 -54.5380 68° East 532 612 38,000  Level FlightAware
01:51AM 47.9330 -54.3870 68° East 535 616 38,000  Level FlightAware
01:52AM 47.9700 -54.2500 68° East 534 615 38,000  Level FlightAware
01:52AM 48.0060 -54.1130 69° East 531 611 38,000  Level FlightAware
01:53AM 48.0470 -53.9580 68° East 530 610 38,000  Level FlightAware
01:54AM 48.0830 -53.8200 69° East 529 609 38,000  Level FlightAware
01:54AM 48.1220 -53.6710 69° East 528 608 38,000  Level FlightAware
01:55AM 48.1580 -53.5330 69° East 525 604 38,000  Level FlightAware
01:56AM 48.1940 -53.3930 69° East 526 605 38,000  Level FlightAware
01:57AM 48.2320 -53.2420 69° East 525 604 38,000  Level FlightAware
01:57AM 48.2580 -53.1420 69° East 524 603 38,000  Level FlightAware
01:58AM 48.3050 -52.9530 69° East 521 600 38,000  Level FlightAware
01:59AM 48.3520 -52.7670 69° East 521 600 38,000  Level FlightAware
01:59AM 48.3780 -52.6640 69° East 521 600 38,000  Level FlightAware
02:00AM 48.4200 -52.4940 70° East 523 602 38,000  Level FlightAware
02:01AM 48.4650 -52.3090 70° East 524 603 38,000  Level FlightAware
02:02AM 48.5130 -52.1130 70° East 527 606 38,000  Level FlightAware
02:03AM 48.5710 -51.8720 70° East 530 610 38,000  Level FlightAware
02:04AM 48.6290 -51.6270 70° East 533 613 38,000  Level FlightAware
02:06AM 48.6870 -51.3820 70° East 535 616 38,000  Level FlightAware
02:06AM 48.7190 -51.2430 71° East 536 617 38,000  Level FlightAware
02:07AM 48.7540 -51.0930 70° East 535 616 38,000  Level FlightAware
02:08AM 48.7900 -50.9360 71° East 535 616 38,000  Level FlightAware
02:08AM 48.8260 -50.7770 71° East 530 610 38,000  Level FlightAware
02:09AM 48.8580 -50.6360 71° East 527 606 38,000  Level FlightAware
02:10AM 48.8900 -50.4970 71° East 526 605 38,000  Level FlightAware
02:11AM 48.9250 -50.3380 71° East 526 605 38,000  Level FlightAware
02:11AM 48.9510 -50.2220 71° East 525 604 38,000  Level FlightAware
02:12AM 48.9820 -50.0780 72° East 525 604 38,000  Level FlightAware
02:13AM 49.0070 -49.9580 72° East 525 604 38,000  Level FlightAware
02:13AM 49.0330 -49.8390 72° East 525 604 38,000  Level FlightAware
02:14AM 49.0650 -49.6890 72° East 525 604 38,000  Level FlightAware
02:15AM 49.0900 -49.5690 72° East 525 604 38,000  Level FlightAware
02:15AM 49.1160 -49.4490 72° East 525 604 38,000  Level FlightAware
02:16AM 49.1410 -49.3290 72° East 525 604 38,000  Level FlightAware
02:17AM 49.1730 -49.1790 72° East 525 604 38,000  Level FlightAware
02:18AM 49.1980 -49.0590 72° East 525 604 38,000  Level FlightAware
02:18AM 49.2240 -48.9380 72° East 525 604 38,000  Level FlightAware
02:19AM 49.2500 -48.8180 72° East 525 604 38,000  Level FlightAware
02:20AM 49.2750 -48.6980 72° East 525 604 38,000  Level FlightAware
02:20AM 49.3070 -48.5470 72° East 525 604 38,000  Level FlightAware
02:21AM 49.3320 -48.4270 72° East 525 604 38,000  Level FlightAware
02:22AM 49.4500 -47.9667 72° East 520 598 38,000  Level Gander Center
02:22AM 49.4667 -47.8833 73° East 520 598 38,000  Level Gander Center
02:23AM 49.4833 -47.7500 79° East 530 610 38,000  Level Gander Center
02:24AM 49.5500 -47.5167 66° East 530 610 38,000  Level Gander Center
02:24AM 49.5500 -47.4667 90° East 530 610 38,000  Level Gander Center
02:25AM 49.5833 -47.3333 69° East 530 610 38,000  Level Gander Center
02:26AM 49.6333 -47.1000 72° East 530 610 38,000  Level Gander Center
02:28AM 49.7253 -46.6949 71° East  Level FlightAware Approximate
02:35AM 50.0546 -45.1758 71° East  Level FlightAware Approximate
02:36AM 50.1001 -44.9572 72° East  Level FlightAware Approximate
02:37AM 50.1451 -44.7381 72° East  Level FlightAware Approximate
02:38AM 50.1897 -44.5186 72° East  Level FlightAware Approximate
02:39AM 50.2339 -44.2986 72° East  Level FlightAware Approximate
02:40AM 50.2776 -44.0783 73° East  Level FlightAware Approximate
02:41AM 50.3210 -43.8576 73° East  Level FlightAware Approximate
02:42AM 50.3639 -43.6365 73° East  Level FlightAware Approximate
02:43AM 50.4064 -43.4149 73° East  Level FlightAware Approximate
02:44AM 50.4485 -43.1930 73° East  Level FlightAware Approximate
02:45AM 50.4902 -42.9707 74° East  Level FlightAware Approximate
02:46AM 50.5314 -42.7480 74° East  Level FlightAware Approximate
02:47AM 50.5722 -42.5249 74° East  Level FlightAware Approximate
02:48AM 50.6126 -42.3014 74° East  Level FlightAware Approximate
02:49AM 50.6526 -42.0776 74° East  Level FlightAware Approximate
02:50AM 50.6921 -41.8533 74° East  Level FlightAware Approximate
02:51AM 50.7312 -41.6287 75° East  Level FlightAware Approximate
02:52AM 50.7699 -41.4037 75° East  Level FlightAware Approximate
02:53AM 50.8081 -41.1784 75° East  Level FlightAware Approximate
02:54AM 50.8459 -40.9526 75° East  Level FlightAware Approximate
02:55AM 50.8833 -40.7266 75° East  Level FlightAware Approximate
02:56AM 50.9202 -40.5001 75° East  Level FlightAware Approximate
02:57AM 50.9567 -40.2733 76° East  Level FlightAware Approximate
02:58AM 50.9927 -40.0461 76° East  Level FlightAware Approximate
02:59AM 51.0439 -39.8257 68° East  Level FlightAware Approximate
03:00AM 51.0984 -39.6076 68° East  Level FlightAware Approximate
03:01AM 51.1525 -39.3889 68° East  Level FlightAware Approximate
03:02AM 51.2062 -39.1698 69° East  Level FlightAware Approximate
03:03AM 51.2594 -38.9501 69° East  Level FlightAware Approximate
03:04AM 51.3123 -38.7299 69° East  Level FlightAware Approximate
03:05AM 51.3647 -38.5092 69° East  Level FlightAware Approximate
03:06AM 51.4167 -38.2880 69° East  Level FlightAware Approximate
03:07AM 51.4683 -38.0663 69° East  Level FlightAware Approximate
03:08AM 51.5195 -37.8441 70° East  Level FlightAware Approximate
03:09AM 51.5703 -37.6214 70° East  Level FlightAware Approximate
03:10AM 51.6206 -37.3982 70° East  Level FlightAware Approximate
03:11AM 51.6705 -37.1745 70° East  Level FlightAware Approximate
03:12AM 51.7200 -36.9503 70° East  Level FlightAware Approximate
03:13AM 51.7691 -36.7256 70° East  Level FlightAware Approximate
03:14AM 51.8177 -36.5005 71° East  Level FlightAware Approximate
03:15AM 51.8659 -36.2748 71° East  Level FlightAware Approximate
03:16AM 51.9137 -36.0487 71° East  Level FlightAware Approximate
03:17AM 51.9610 -35.8221 71° East  Level FlightAware Approximate
03:18AM 52.0079 -35.5950 71° East  Level FlightAware Approximate
03:19AM 52.0543 -35.3675 72° East  Level FlightAware Approximate
03:20AM 52.1004 -35.1395 72° East  Level FlightAware Approximate
03:21AM 52.1459 -34.9109 72° East  Level FlightAware Approximate
03:22AM 52.1911 -34.6820 72° East  Level FlightAware Approximate
03:23AM 52.2358 -34.4526 72° East  Level FlightAware Approximate
03:24AM 52.2800 -34.2227 72° East  Level FlightAware Approximate
03:25AM 52.3238 -33.9924 73° East  Level FlightAware Approximate
03:26AM 52.3672 -33.7616 73° East  Level FlightAware Approximate
03:27AM 52.4101 -33.5303 73° East  Level FlightAware Approximate
03:28AM 52.4525 -33.2986 73° East  Level FlightAware Approximate
03:29AM 52.4945 -33.0665 73° East  Level FlightAware Approximate
03:30AM 52.5361 -32.8339 74° East  Level FlightAware Approximate
03:31AM 52.5772 -32.6009 74° East  Level FlightAware Approximate
03:32AM 52.6178 -32.3674 74° East  Level FlightAware Approximate
03:33AM 52.6580 -32.1335 74° East  Level FlightAware Approximate
03:34AM 52.6977 -31.8992 74° East  Level FlightAware Approximate
03:35AM 52.7369 -31.6645 74° East  Level FlightAware Approximate
03:36AM 52.7757 -31.4293 75° East  Level FlightAware Approximate
03:37AM 52.8140 -31.1938 75° East  Level FlightAware Approximate
03:38AM 52.8518 -30.9578 75° East  Level FlightAware Approximate
03:39AM 52.8892 -30.7214 75° East  Level FlightAware Approximate
03:40AM 52.9261 -30.4846 75° East  Level FlightAware Approximate
03:41AM 52.9626 -30.2474 76° East  Level FlightAware Approximate
03:42AM 52.9985 -30.0098 76° East  Level FlightAware Approximate
03:43AM 53.0325 -29.7711 77° East  Level FlightAware Approximate
03:44AM 53.0659 -29.5321 77° East  Level FlightAware Approximate
03:45AM 53.0989 -29.2927 77° East  Level FlightAware Approximate
03:46AM 53.1314 -29.0530 77° East  Level FlightAware Approximate
03:47AM 53.1633 -28.8129 77° East  Level FlightAware Approximate
03:48AM 53.1949 -28.5725 78° East  Level FlightAware Approximate
03:49AM 53.2259 -28.3317 78° East  Level FlightAware Approximate
03:50AM 53.2564 -28.0905 78° East  Level FlightAware Approximate
03:51AM 53.2864 -27.8490 78° East  Level FlightAware Approximate
03:52AM 53.3160 -27.6072 78° East  Level FlightAware Approximate
03:53AM 53.3451 -27.3651 79° East  Level FlightAware Approximate
03:54AM 53.3737 -27.1226 79° East  Level FlightAware Approximate
03:55AM 53.4017 -26.8798 79° East  Level FlightAware Approximate
03:56AM 53.4293 -26.6367 79° East  Level FlightAware Approximate
03:57AM 53.4564 -26.3932 79° East  Level FlightAware Approximate
03:58AM 53.4835 -26.1496 79° East  Level FlightAware Approximate
03:59AM 53.5102 -25.9057 79° East  Level FlightAware Approximate
04:00AM 53.5365 -25.6616 80° East  Level FlightAware Approximate
04:01AM 53.5623 -25.4171 80° East  Level FlightAware Approximate
04:02AM 53.5876 -25.1724 80° East  Level FlightAware Approximate
04:03AM 53.6123 -24.9273 80° East  Level FlightAware Approximate
04:04AM 53.6366 -24.6820 80° East  Level FlightAware Approximate
04:05AM 53.6604 -24.4364 81° East  Level FlightAware Approximate
04:06AM 53.6837 -24.1905 81° East  Level FlightAware Approximate
04:07AM 53.7064 -23.9444 81° East  Level FlightAware Approximate
04:08AM 53.7287 -23.6980 81° East  Level FlightAware Approximate
04:09AM 53.7505 -23.4513 81° East  Level FlightAware Approximate
04:10AM 53.7717 -23.2044 82° East  Level FlightAware Approximate
04:11AM 53.7925 -22.9572 82° East  Level FlightAware Approximate
04:12AM 53.8127 -22.7098 82° East  Level FlightAware Approximate
04:13AM 53.8324 -22.4622 82° East  Level FlightAware Approximate
04:14AM 53.8517 -22.2143 82° East  Level FlightAware Approximate
04:15AM 53.8704 -21.9662 83° East  Level FlightAware Approximate
04:16AM 53.8885 -21.7179 83° East  Level FlightAware Approximate
04:17AM 53.9062 -21.4693 83° East  Level FlightAware Approximate
04:18AM 53.9234 -21.2206 83° East  Level FlightAware Approximate
04:19AM 53.9400 -20.9717 83° East  Level FlightAware Approximate
04:20AM 53.9562 -20.7225 84° East  Level FlightAware Approximate
04:21AM 53.9718 -20.4732 84° East  Level FlightAware Approximate
04:22AM 53.9869 -20.2237 84° East  Level FlightAware Approximate
04:23AM 53.9985 -19.9740 96° East  Level FlightAware Approximate
04:24AM 53.9835 -19.7244 96° East  Level FlightAware Approximate
04:25AM 53.9681 -19.4749 96° East  Level FlightAware Approximate
04:26AM 53.9521 -19.2257 96° East  Level FlightAware Approximate
04:27AM 53.9356 -18.9767 96° East  Level FlightAware Approximate
04:28AM 53.9186 -18.7278 97° East  Level FlightAware Approximate
04:29AM 53.9011 -18.4792 97° East  Level FlightAware Approximate
04:30AM 53.8831 -18.2307 97° East  Level FlightAware Approximate
04:31AM 53.8645 -17.9825 97° East  Level FlightAware Approximate
04:32AM 53.8455 -17.7345 97° East  Level FlightAware Approximate
04:33AM 53.8259 -17.4868 98° East  Level FlightAware Approximate
04:34AM 53.8058 -17.2392 98° East  Level FlightAware Approximate
04:35AM 53.7852 -16.9919 98° East  Level FlightAware Approximate
04:36AM 53.7641 -16.7449 98° East  Level FlightAware Approximate
04:37AM 53.7425 -16.4981 98° East  Level FlightAware Approximate
04:38AM 53.7204 -16.2516 99° East  Level FlightAware Approximate
04:39AM 53.6978 -16.0053 99° East  Level FlightAware Approximate
04:40AM 53.6747 -15.7593 99° East  Level FlightAware Approximate
04:41AM 53.6511 -15.5136 99° East  Level FlightAware Approximate
04:41AM 53.9130 -14.4350 99° East 536 617 39,000  Level FlightAware
04:42AM 53.6270 -15.2681 99° East  Level FlightAware Approximate
04:42AM 53.8890 -14.2810 105° East 535 616 39,000  Level FlightAware
04:42AM 53.8580 -14.0920 105° East 536 617 39,000  Level FlightAware
04:43AM 53.8370 -13.9610 105° East 536 617 39,000  Level FlightAware
04:44AM 53.8050 -13.7640 105° East 539 620 39,000  Level FlightAware
04:45AM 53.7720 -13.5580 105° East 539 620 39,000  Level FlightAware
04:45AM 53.7410 -13.3720 106° East 540 621 39,000  Level FlightAware
04:46AM 53.7070 -13.1720 106° East 542 624 39,000  Level FlightAware
04:47AM 53.6790 -13.0090 106° East 543 625 39,000  Level FlightAware
04:48AM 53.6530 -12.8560 106° East 541 623 39,000  Level FlightAware
04:48AM 53.6200 -12.6660 106° East 541 623 39,000  Level FlightAware
04:49AM 53.5910 -12.4990 106° East 543 625 39,000  Level FlightAware
04:50AM 53.5650 -12.3500 106° East 546 628 39,000  Level FlightAware
04:50AM 53.5310 -12.1610 107° East 546 628 39,000  Level FlightAware
04:51AM 53.5030 -12.0050 107° East 548 631 39,000  Level FlightAware
04:52AM 53.4550 -11.7420 107° East 548 631 39,000  Level FlightAware
04:53AM 53.4160 -11.5290 107° East 547 629 39,000  Level FlightAware
04:54AM 53.3860 -11.3700 107° East 548 631 39,000  Level FlightAware
04:54AM 53.3590 -11.2220 107° East 548 631 39,000  Level FlightAware
04:55AM 53.3230 -11.0350 108° East 548 631 39,000  Level FlightAware
04:56AM 53.2950 -10.8860 107° East 546 628 39,000  Level FlightAware
04:56AM 53.2660 -10.7360 108° East 546 628 39,000  Level FlightAware
04:57AM 53.2360 -10.5810 108° East 548 631 39,000  Level FlightAware
04:58AM 53.2000 -10.3980 108° East 548 631 39,000  Level FlightAware
04:58AM 53.1730 -10.2590 108° East 547 629 39,000  Level FlightAware
04:59AM 53.1390 -10.0880 108° East 547 629 39,000  Level FlightAware
05:00AM 53.1010 -9.8990 108° East 551 634 39,000  Level FlightAware
05:00AM 53.0710 -9.7510 109° East 550 633 39,000  Level FlightAware
05:01AM 53.0380 -9.5910 109° East 552 635 39,000  Level FlightAware
05:02AM 52.9910 -9.3600 109° East 549 632 39,000  Level FlightAware
05:03AM 52.9610 -9.2160 109° East 550 633 39,000  Level FlightAware
05:03AM 52.9210 -9.0280 109° East 551 634 39,000 -1,920 Level FlightAware
05:03AM 52.9152 -9.0001 109° East 480 552 37,500 -4,500 Descending FlightAware UK
05:04AM 52.9002 -8.9283 109° East 480 552 37,500  Level FlightAware UK
05:04AM 52.8851 -8.8571 109° East 480 552 37,500 3,600 Level FlightAware UK
05:04AM 52.8810 -8.8390 109° East 552 635 39,000  Climbing FlightAware
05:04AM 52.8648 -8.7617 109° East 482 555 37,500 -2,580 Descending FlightAware UK
05:05AM 52.8492 -8.6895 110° East 482 555 37,500 3,900 Level FlightAware UK
05:05AM 52.8500 -8.6960 110° East 549 632 39,000  Climbing FlightAware
05:05AM 52.8290 -8.5944 110° East 482 555 37,500 -2,460 Descending FlightAware UK
05:05AM 52.8136 -8.5233 110° East 482 555 37,500 3,420 Level FlightAware UK
05:06AM 52.8090 -8.5040 110° East 548 631 39,000  Climbing FlightAware
05:06AM 52.7931 -8.4288 110° East 480 552 37,500 -2,700 Descending FlightAware UK
05:06AM 52.7775 -8.3570 110° East 482 555 37,500 3,480 Level FlightAware UK
05:06AM 52.7760 -8.3500 110° East 546 628 38,900 -1,260 Climbing FlightAware
05:07AM 52.7567 -8.2624 110° East 480 552 37,000 -3,840 Descending FlightAware UK
05:07AM 52.7412 -8.1915 110° East 484 557 36,600 3,000 Descending FlightAware UK
05:07AM 52.7390 -8.1830 110° East 543 625 38,100 -1,260 Climbing FlightAware
05:07AM 52.7207 -8.0975 110° East 476 548 36,100 -4,140 Descending FlightAware UK
05:08AM 52.7052 -8.0276 110° East 474 545 35,500 1,920 Descending FlightAware UK
05:08AM 52.7010 -8.0120 110° East 545 627 36,900 -1,800 Climbing FlightAware
05:08AM 52.6843 -7.9348 110° East 476 548 34,800 -4,320 Descending FlightAware UK
05:08AM 52.6687 -7.8649 110° East 476 548 34,400 3,960 Descending FlightAware UK
05:08AM 52.6710 -7.8770 110° East 547 629 36,000 -1,380 Climbing FlightAware
05:09AM 52.6531 -7.7949 110° East 476 548 34,000 -4,020 Descending FlightAware UK
05:09AM 52.6375 -7.7253 110° East 480 552 33,600 1,680 Descending FlightAware UK
05:09AM 52.6300 -7.6910 110° East 546 628 34,900 -1,440 Climbing FlightAware
05:09AM 52.6113 -7.6084 110° East 482 555 32,900 -4,080 Descending FlightAware UK
05:10AM 52.5955 -7.5382 110° East 484 557 32,600 2,700 Descending FlightAware UK
05:10AM 52.5910 -7.5190 110° East 548 631 34,000 -1,260 Climbing FlightAware
05:10AM 52.5742 -7.4446 110° East 484 557 32,100 -4,020 Descending FlightAware UK
05:10AM 52.5581 -7.3744 111° Southeast 488 562 31,600 2,220 Descending FlightAware UK
05:10AM 52.5520 -7.3470 111° Southeast 554 638 33,100 -540 Climbing FlightAware
05:11AM 52.5366 -7.2805 111° Southeast 492 566 31,400 -2,940 Descending FlightAware UK
05:11AM 52.5203 -7.2097 111° Southeast 492 566 31,500 3,840 Climbing FlightAware UK
05:11AM 52.5180 -7.1990 111° Southeast 554 638 33,000  Climbing FlightAware
05:11AM 52.4984 -7.1145 111° Southeast 492 566 31,500 -2,580 Descending FlightAware UK
05:12AM 52.4821 -7.0438 111° Southeast 492 566 31,500  Level FlightAware UK
05:12AM 52.4658 -6.9734 111° Southeast 490 564 31,500 2,520 Level FlightAware UK
05:12AM 52.4610 -6.9540 111° Southeast 553 636 33,000  Climbing FlightAware
05:13AM 52.4328 -6.8331 111° Southeast 492 566 31,500 -2,460 Descending FlightAware UK
05:13AM 52.4162 -6.7630 111° Southeast 490 564 31,500 4,260 Level FlightAware UK
05:13AM 52.4190 -6.7750 111° Southeast 552 635 33,000  Climbing FlightAware
05:13AM 52.3996 -6.6932 111° Southeast 492 566 31,500 -2,760 Descending FlightAware UK
05:14AM 52.3830 -6.6234 111° Southeast 492 566 31,500 3,000 Level FlightAware UK
05:14AM 52.3760 -6.5920 111° Southeast 552 635 33,000  Climbing FlightAware
05:14AM 52.3556 -6.5068 111° Southeast 490 564 31,500 -2,520 Descending FlightAware UK
05:14AM 52.3389 -6.4372 111° Southeast 490 564 31,500 4,080 Level FlightAware UK
05:14AM 52.3370 -6.4290 111° Southeast 551 634 33,000  Climbing FlightAware
05:15AM 52.3166 -6.3444 111° Southeast 490 564 31,500 -2,400 Descending FlightAware UK
05:15AM 52.2998 -6.2747 111° Southeast 492 566 31,500 3,600 Level FlightAware UK
05:15AM 52.2960 -6.2590 111° Southeast 552 635 33,000  Climbing FlightAware
05:15AM 52.2774 -6.1819 111° Southeast 490 564 31,500 -2,580 Descending FlightAware UK
05:16AM 52.2606 -6.1124 112° Southeast 492 566 31,500 3,900 Level FlightAware UK
05:16AM 52.2600 -6.1070 112° Southeast 551 634 33,000  Climbing FlightAware
05:16AM 52.2384 -6.0195 112° Southeast 492 566 31,500 -2,460 Descending FlightAware UK
05:16AM 52.2213 -5.9494 112° Southeast 490 564 31,500 4,260 Level FlightAware UK
05:16AM 52.2220 -5.9500 112° Southeast 550 633 33,000  Climbing FlightAware
05:17AM 52.2043 -5.8801 112° Southeast 492 566 31,500 -2,760 Descending FlightAware UK
05:17AM 52.1872 -5.8110 112° Southeast 492 566 31,500 3,000 Level FlightAware UK
05:17AM 52.1790 -5.7760 112° Southeast 550 633 33,000  Climbing FlightAware
05:18AM 52.1588 -5.6959 112° Southeast 490 564 31,500 -2,520 Descending FlightAware UK
05:18AM 52.1398 -5.6288 115° Southeast 490 564 31,500 4,080 Level FlightAware UK
05:18AM 52.1370 -5.6220 115° Southeast 548 631 33,000  Climbing FlightAware
05:18AM 52.1124 -5.5404 115° Southeast 490 564 31,500 -2,400 Descending FlightAware UK
05:19AM 52.0919 -5.4742 117° Southeast 492 566 31,500 3,600 Level FlightAware UK
05:19AM 52.0880 -5.4610 117° Southeast 549 632 33,000  Climbing FlightAware
05:19AM 52.0513 -5.3417 117° Southeast 492 566 31,500  Descending FlightAware UK
05:19AM 52.0430 -5.3160 117° Southeast 549 632 33,000  Climbing FlightAware
05:20AM 52.0103 -5.2094 117° Southeast 492 566 31,500  Descending FlightAware UK
05:20AM 51.9970 -5.1680 117° Southeast 547 629 33,000  Climbing FlightAware
05:20AM 51.9758 -5.0990 117° Southeast 492 566 31,500 -2,340 Descending FlightAware UK
05:21AM 51.9483 -5.0114 117° Southeast 492 566 31,500 3,000 Level FlightAware UK
05:21AM 51.9450 -5.0010 117° Southeast 547 629 33,000  Climbing FlightAware
05:21AM 51.9207 -4.9241 117° Southeast 492 566 31,500 -2,520 Descending FlightAware UK
05:21AM 51.8998 -4.8586 117° Southeast 490 564 31,500 4,080 Level FlightAware UK
05:21AM 51.8980 -4.8520 117° Southeast 547 629 33,000  Climbing FlightAware
05:22AM 51.8720 -4.7716 117° Southeast 492 566 31,500 -300 Descending FlightAware UK
05:22AM 51.8450 -4.6870 117° Southeast 551 634 32,800 -720 Climbing FlightAware
05:22AM 51.8227 -4.6194 117° Southeast 496 571 31,000 -3,600 Descending FlightAware UK
05:23AM 51.8011 -4.5543 118° Southeast 494 568 30,700 3,120 Descending FlightAware UK
05:23AM 51.7970 -4.5430 118° Southeast 544 626 32,200 -1,020 Climbing FlightAware
05:23AM 51.7722 -4.4684 118° Southeast 486 559 30,300 -3,480 Descending FlightAware UK
05:23AM 51.7512 -4.4053 118° Southeast 482 555 30,000 3,660 Descending FlightAware UK
05:23AM 51.7520 -4.4080 118° Southeast 534 615 31,600 -840 Climbing FlightAware
05:24AM 51.7097 -4.2796 118° Southeast 478 550 29,500 -900 Descending FlightAware UK
05:24AM 51.7070 -4.2650 118° Southeast 530 610 31,000  Climbing FlightAware
05:24AM 51.6934 -4.1885 118° Southeast 474 545 29,500 -2,520 Descending FlightAware UK
05:25AM 51.6852 -4.1193 101° East 472 543 29,500 3,300 Level FlightAware UK
05:25AM 51.6820 -4.0930 101° East 530 610 31,000  Climbing FlightAware
05:25AM 51.6719 -4.0032 101° East 470 541 29,500 -2,340 Descending FlightAware UK
05:26AM 51.6638 -3.9341 101° East 468 539 29,500 4,680 Level FlightAware UK
05:26AM 51.6640 -3.9360 101° East 524 603 31,000  Climbing FlightAware
05:26AM 51.6500 -3.8184 101° East 474 545 29,500  Descending FlightAware UK
05:26AM 51.6440 -3.7680 101° East 533 613 31,000 1,440 Climbing FlightAware
05:27AM 51.6210 -3.5890 102° East 533 613 31,000 -1,380 Level FlightAware
05:27AM 51.6086 -3.4924 102° East 476 548 29,500  Descending FlightAware UK
05:28AM 51.6020 -3.4360 102° East 533 613 31,000  Climbing FlightAware
05:28AM 51.5897 -3.3282 102° East 476 548 29,500  Descending FlightAware UK
05:28AM 51.5820 -3.2630 102° East 534 615 31,000 -300 Climbing FlightAware
05:29AM 51.5714 -3.1647 102° East 474 545 29,300 -1,320 Descending FlightAware UK
05:29AM 51.5649 -3.1097 102° East 530 610 30,200 -2,580 Climbing FlightAware ADS-B
05:30AM 51.5523 -3.0026 102° East 470 541 27,500 -3,120 Descending FlightAware UK
05:30AM 51.5491 -2.9758 102° East 527 606 28,400 -3,300 Climbing FlightAware ADS-B
05:30AM 51.5412 -2.9101 102° East 478 550 26,200 -2,340 Descending FlightAware UK
05:30AM 51.5325 -2.8275 102° East 516 594 26,900 -2,340 Climbing FlightAware ADS-B
05:31AM 51.5254 -2.7285 102° East 464 534 24,300 -2,400 Descending FlightAware UK
05:31AM 51.5204 -2.6563 102° East 513 590 25,100 -2,220 Climbing FlightAware ADS-B
05:31AM 51.5161 -2.5952 102° East 456 525 23,000 -2,280 Descending FlightAware UK
05:32AM 51.5100 -2.5087 102° East 488 562 23,600 -480 Climbing FlightAware ADS-B
05:32AM 51.5028 -2.3985 96° East 472 543 22,600 -3,720 Descending FlightAware ADS-B
05:33AM 51.4974 -2.3187 96° East 432 497 20,300 -2,040 Descending FlightAware UK
05:33AM 51.4954 -2.2852 96° East 463 533 21,500 -2,220 Climbing FlightAware ADS-B
05:33AM 51.4913 -2.2168 96° East 424 488 19,200 -2,340 Descending FlightAware UK
05:33AM 51.4891 -2.1811 96° East 456 525 20,300  Climbing FlightAware ADS-B
05:34AM 51.4825 -2.0758 96° East 449 517 19,200 -1,920 Descending FlightAware ADS-B
05:34AM 51.4772 -2.0042 97° East 441 507 18,600 -1,920 Descending FlightAware ADS-B
05:35AM 51.4628 -1.8939 102° East 432 497 17,400 -3,840 Descending FlightAware ADS-B
05:35AM 51.4538 -1.8286 102° East 394 453 15,100 -2,040 Descending FlightAware UK
05:35AM 51.4503 -1.8010 102° East 426 490 16,400 -1,800 Climbing FlightAware ADS-B
05:36AM 51.4417 -1.7362 102° East 388 447 14,200 -1,680 Descending FlightAware UK
05:36AM 51.4360 -1.6931 102° East 413 475 15,400 -1,740 Climbing FlightAware ADS-B
05:36AM 51.4251 -1.6118 102° East 374 430 13,000 -1,920 Descending FlightAware UK
05:36AM 51.4230 -1.5969 102° East 406 467 14,400 -1,260 Climbing FlightAware ADS-B
05:37AM 51.4157 -1.5416 102° East 368 423 12,500 -780 Descending FlightAware UK
05:37AM 51.4109 -1.5055 102° East 399 459 14,000 -240 Climbing FlightAware ADS-B
05:37AM 51.4042 -1.4560 102° East 370 426 12,400  Descending FlightAware UK
05:37AM 51.3988 -1.4167 102° East 401 461 14,000 180 Climbing FlightAware ADS-B
05:38AM 51.3925 -1.3695 102° East 374 430 12,500  Descending FlightAware UK
05:38AM 51.3859 -1.3225 102° East 400 460 14,000 1,860 Climbing FlightAware ADS-B
05:39AM 51.3738 -1.2351 102° East 399 459 14,000  Level FlightAware ADS-B
05:39AM 51.3616 -1.1482 103° East 400 460 14,000 -840 Level FlightAware ADS-B
05:40AM 51.3491 -1.0612 103° East 395 455 13,200 -3,720 Descending FlightAware ADS-B
05:40AM 51.3413 -1.0066 103° East 366 421 11,000 -2,040 Descending FlightAware UK
05:40AM 51.3368 -0.9761 103° East 390 449 12,200 -1,800 Climbing FlightAware ADS-B
05:40AM 51.3293 -0.9230 103° East 358 412 10,100 -1,980 Descending FlightAware UK
05:41AM 51.3249 -0.8915 103° East 385 443 11,200 240 Climbing FlightAware ADS-B
05:41AM 51.3133 -0.8083 103° East 379 436 10,300 -1,740 Descending FlightAware ADS-B
05:41AM 51.3076 -0.7665 102° East 374 430 9,900 -1,620 Descending FlightAware ADS-B
05:42AM 51.3020 -0.7258 102° East 370 426 9,500 -1,140 Descending FlightAware ADS-B
05:42AM 51.2961 -0.6830 102° East 357 411 9,300 -660 Descending FlightAware ADS-B
05:42AM 51.2915 -0.6512 103° East 346 398 9,200 -360 Descending FlightAware ADS-B
05:42AM 51.2902 -0.6377 99° East 343 395 9,200 -720 Level FlightAware ADS-B
05:42AM 51.2900 -0.6302 92° East 339 390 9,100 -900 Descending FlightAware ADS-B
05:42AM 51.2904 -0.6208 86° East 335 386 9,100 -900 Level FlightAware ADS-B
05:42AM 51.2909 -0.6135 84° East 332 382 9,000 -720 Descending FlightAware ADS-B
05:43AM 51.2950 -0.5775 80° East 321 369 8,900 -420 Descending FlightAware ADS-B
05:43AM 51.2986 -0.5423 81° East 309 356 8,800 -420 Descending FlightAware ADS-B
05:43AM 51.3011 -0.5096 83° East 292 336 8,700 -420 Descending FlightAware ADS-B
05:43AM 51.3032 -0.4773 84° East 282 325 8,600 -600 Descending FlightAware ADS-B
05:44AM 51.3049 -0.4480 85° East 274 315 8,400 -600 Descending FlightAware ADS-B
05:44AM 51.3054 -0.4327 87° East 271 312 8,400 -300 Level FlightAware ADS-B
05:44AM 51.3061 -0.4007 88° East 265 305 8,300 -420 Descending FlightAware ADS-B
05:44AM 51.3070 -0.3693 87° East 256 295 8,200 -480 Descending FlightAware ADS-B
05:44AM 51.3074 -0.3517 88° East 255 293 8,100 -780 Descending FlightAware ADS-B
05:44AM 51.3070 -0.3396 93° East 257 296 8,000 -480 Descending FlightAware ADS-B
05:45AM 51.3043 -0.3259 107° East 261 300 8,000  Level FlightAware ADS-B
05:45AM 51.3026 -0.3207 118° Southeast 262 302 8,000  Level FlightAware ADS-B
05:45AM 51.2992 -0.3133 126° Southeast 263 303 8,000  Level FlightAware ADS-B
05:45AM 51.2932 -0.3042 137° Southeast 263 303 8,000  Level FlightAware ADS-B
05:45AM 51.2860 -0.2974 149° Southeast 262 302 8,000  Level FlightAware ADS-B
05:45AM 51.2793 -0.2940 163° South 259 298 8,000  Level FlightAware ADS-B
05:45AM 51.2691 -0.2931 177° South 253 291 8,000  Level FlightAware ADS-B
05:45AM 51.2603 -0.2963 193° South 250 288 8,000  Level FlightAware ADS-B
05:45AM 51.2561 -0.2994 204° Southwest 248 285 8,000  Level FlightAware ADS-B
05:46AM 51.2503 -0.3056 214° Southwest 247 284 8,000  Level FlightAware ADS-B
05:46AM 51.2461 -0.3123 225° Southwest 245 282 8,000  Level FlightAware ADS-B
05:46AM 51.2428 -0.3195 234° Southwest 244 281 8,000  Level FlightAware ADS-B
05:46AM 51.2412 -0.3242 241° Southwest 242 278 8,000  Level FlightAware ADS-B
05:46AM 51.2396 -0.3304 248° West 239 275 8,000  Level FlightAware ADS-B
05:46AM 51.2378 -0.3457 259° West 234 269 8,000  Level FlightAware ADS-B
05:46AM 51.2380 -0.3549 272° West 232 267 8,000  Level FlightAware ADS-B
05:46AM 51.2394 -0.3649 283° West 229 264 8,000  Level FlightAware ADS-B
05:46AM 51.2406 -0.3699 291° West 228 262 8,000  Level FlightAware ADS-B
05:46AM 51.2420 -0.3747 295° West 228 262 8,000  Level FlightAware ADS-B
05:46AM 51.2439 -0.3796 302° West 227 261 8,000  Level FlightAware ADS-B
05:46AM 51.2459 -0.3838 307° West 226 260 8,000  Level FlightAware ADS-B
05:46AM 51.2491 -0.3891 314° West 226 260 8,000  Level FlightAware ADS-B
05:47AM 51.2563 -0.3975 324° Northwest 227 261 8,000  Level FlightAware ADS-B
05:47AM 51.2627 -0.4035 330° Northwest 229 264 8,000  Level FlightAware ADS-B
05:47AM 51.2717 -0.4137 325° Northwest 230 265 8,000  Level FlightAware ADS-B
05:47AM 51.2846 -0.4285 324° Northwest 230 265 8,000  Level FlightAware ADS-B
05:47AM 51.2978 -0.4421 327° Northwest 228 262 8,000  Level FlightAware ADS-B
05:47AM 51.3034 -0.4469 332° Northwest 229 264 8,000  Level FlightAware ADS-B
05:48AM 51.3103 -0.4504 342° North 233 268 8,000 -420 Level FlightAware ADS-B
05:48AM 51.3183 -0.4512 357° North 236 272 7,900 -600 Descending FlightAware ADS-B
05:48AM 51.3222 -0.4504 North 238 274 7,900  Level FlightAware ADS-B
05:48AM 51.3264 -0.4485 15° North 240 276 7,900 -720 Level FlightAware ADS-B
05:48AM 51.3311 -0.4452 24° Northeast 244 281 7,800 -780 Descending FlightAware ADS-B
05:48AM 51.3346 -0.4418 32° Northeast 246 283 7,800  Level FlightAware ADS-B
05:48AM 51.3379 -0.4374 40° Northeast 248 285 7,800 -780 Level FlightAware ADS-B
05:48AM 51.3406 -0.4328 46° Northeast 251 289 7,700 -780 Descending FlightAware ADS-B
05:48AM 51.3438 -0.4259 53° Northeast 254 292 7,700  Level FlightAware ADS-B
05:48AM 51.3455 -0.4210 61° Northeast 256 295 7,700 -900 Level FlightAware ADS-B
05:48AM 51.3473 -0.4138 68° East 260 299 7,600 -900 Descending FlightAware ADS-B
05:48AM 51.3482 -0.4083 75° East 262 302 7,600  Level FlightAware ADS-B
05:48AM 51.3494 -0.4000 77° East 263 303 7,600 -300 Level FlightAware ADS-B
05:49AM 51.3524 -0.3650 82° East 263 303 7,500 -720 Descending FlightAware ADS-B
05:49AM 51.3551 -0.3334 82° East 262 302 7,200 -1,140 Descending FlightAware ADS-B
05:49AM 51.3575 -0.3031 83° East 263 303 6,900 -900 Descending FlightAware ADS-B
05:49AM 51.3593 -0.2812 83° East 262 302 6,800 -900 Descending FlightAware ADS-B
05:50AM 51.3618 -0.2511 82° East 259 298 6,500 -1,080 Descending FlightAware ADS-B
05:50AM 51.3645 -0.2162 83° East 258 297 6,200 -1,140 Descending FlightAware ADS-B
05:50AM 51.3663 -0.1916 83° East 258 297 5,900 -1,200 Descending FlightAware ADS-B
05:50AM 51.3683 -0.1753 79° East 255 293 5,800 -900 Descending FlightAware ADS-B
05:51AM 51.3747 -0.1405 74° East 251 289 5,500 -720 Descending FlightAware ADS-B
05:51AM 51.3798 -0.1135 73° East 247 284 5,400 -600 Descending FlightAware ADS-B
05:51AM 51.3845 -0.0874 74° East 241 277 5,200 -540 Descending FlightAware ADS-B
05:52AM 51.3905 -0.0545 74° East 225 259 5,100 -360 Descending FlightAware ADS-B
05:52AM 51.3953 -0.0307 72° East 215 247 5,000 -360 Descending FlightAware ADS-B
05:52AM 51.3969 -0.0258 63° Northeast 208 239 5,000  Level FlightAware ADS-B
05:52AM 51.3985 -0.0217 58° Northeast 203 234 5,000 -420 Level FlightAware ADS-B
05:52AM 51.4057 -0.0102 45° Northeast 191 220 4,900 -840 Descending FlightAware ADS-B
05:52AM 51.4083 -0.0076 32° Northeast 186 214 4,800 -600 Descending FlightAware ADS-B
05:52AM 51.4221 -0.0023 14° North 178 205 4,700 -300 Descending FlightAware ADS-B
05:53AM 51.4258 -0.0024 359° North 177 204 4,700  Level FlightAware ADS-B
05:53AM 51.4320 -0.0042 350° North 174 200 4,700 -540 Level FlightAware ADS-B
05:53AM 51.4349 -0.0057 341° North 173 199 4,600 -780 Descending FlightAware ADS-B
05:53AM 51.4378 -0.0079 335° Northwest 173 199 4,600  Level FlightAware ADS-B
05:53AM 51.4399 -0.0099 329° Northwest 174 200 4,600  Level FlightAware ADS-B
05:53AM 51.4454 -0.0175 320° Northwest 175 201 4,600 -480 Level FlightAware ADS-B
05:53AM 51.4476 -0.0216 311° West 176 203 4,500 -720 Descending FlightAware ADS-B
05:53AM 51.4500 -0.0272 305° West 176 203 4,500  Level FlightAware ADS-B
05:53AM 51.4516 -0.0316 300° West 176 203 4,500 -420 Level FlightAware ADS-B
05:53AM 51.4556 -0.0433 299° West 175 201 4,400 -480 Descending FlightAware ADS-B
05:54AM 51.4611 -0.0609 297° West 174 200 4,300 -600 Descending FlightAware ADS-B
05:54AM 51.4664 -0.0780 296° West 172 198 4,100 -780 Descending FlightAware ADS-B
05:54AM 51.4722 -0.0964 297° West 172 198 3,900 -840 Descending FlightAware ADS-B
05:54AM 51.4746 -0.1041 296° West 173 199 3,800 -960 Descending FlightAware ADS-B
05:54AM 51.4760 -0.1114 287° West 172 198 3,700 -720 Descending FlightAware ADS-B
05:54AM 51.4767 -0.1158 284° West 171 197 3,700 -540 Level FlightAware ADS-B
05:55AM 51.4777 -0.1263 279° West 171 197 3,600 -480 Descending FlightAware ADS-B
05:55AM 51.4777 -0.1315 270° West 173 199 3,600 -480 Level FlightAware ADS-B
05:55AM 51.4774 -0.1448 268° West 172 198 3,500 -480 Descending FlightAware ADS-B
05:55AM 51.4774 -0.1501 270° West 171 197 3,500 -840 Level FlightAware ADS-B
05:55AM 51.4778 -0.1731 272° West 171 197 3,200 -1,200 Descending FlightAware ADS-B
05:55AM 51.4780 -0.1825 272° West 178 205 3,000 -1,020 Descending FlightAware ADS-B
05:56AM 51.4778 -0.2051 269° West 176 203 2,800 -3,720 Descending FlightAware ADS-B
05:56AM 51.4778 -0.2275 269° West 176 203 900 -3,120 Descending FlightAware UK
05:56AM 51.4780 -0.2558 271° West 170 196 700 3,180 Descending FlightAware UK
05:56AM 51.4780 -0.2520 271° West 161 185 2,300 -1,380 Climbing FlightAware
05:57AM 51.4778 -0.2774 271° West 168 193 300 -1,200 Descending FlightAware UK
05:57AM 51.4780 -0.2860 271° West 157 181 1,700 3,240 Climbing FlightAware
05:57AM 51.4780 -0.2930 270° West 157 181 1,600 -900 Descending FlightAware
05:57AM 51.4780 -0.3340 270° West 147 169 1,100 -840 Descending FlightAware
05:58AM 51.4780 -0.3520 270° West 147 169 900 -720 Descending FlightAware
05:58AM 51.4780 -0.3860 270° West 134 154 500 -480 Descending FlightAware
05:59AM 51.4780 -0.3880 270° West 135 155 500 -360 Level FlightAware
05:59AM 51.4780 -0.4140 270° West 135 155 200 -420 Descending FlightAware
06:00AM 51.4780 -0.4470 270° West 136 157 100 -180 Descending FlightAware
06:02AM 51.4667 -0.4500 90° East  Level FlightAware Approximate